Js Ineos Invention — 9HA4281 — position and weather

sailwx.info

Track history (hours):
 
Tides and Currents Weather Stations Pressure Air Temp Water Temp Dewpoint Dewpoint Depression Visibility Wind Speed Wind Dir Waves Ship Positions

Js Ineos Invention

Last reported at 2017-Oct-12 11:11 UTC. Time now 2017-Oct-17 20:26 UTC.
Position N 49°02' W 006°37'.

Length 180 m; draft 7.3 m.

Type: Other ship. MMSI: 249551000.

Date/timePositionNaut miles runAvg speedWind from/ knotsBaromVisibWave heightAir tempDewpointWater temp
2017-Oct-12 11:11N 49°02' W 006°37'314.2
2017-Oct-12 10:58N 49°03' W 006°33'2514.1
2017-Oct-12 09:09N 49°13' W 005°57'813.6
2017-Oct-12 08:36N 49°15' W 005°46'213.4
2017-Oct-12 08:26N 49°16' W 005°42'813.3
2017-Oct-12 07:52N 49°19' W 005°32'2313.9
2017-Oct-12 06:12N 49°27' W 004°58'2814.8
2017-Oct-12 04:19N 49°37' W 004°18'1214.4
2017-Oct-12 03:29N 49°41' W 004°01'816.0
2017-Oct-12 02:59N 49°44' W 003°50'815.0
2017-Oct-12 02:26N 49°47' W 003°38'614.8
2017-Oct-12 02:00N 49°50' W 003°29'815.0
2017-Oct-12 01:30N 49°53' W 003°18'714.6
2017-Oct-12 01:00N 49°56' W 003°08'713.9
2017-Oct-12 00:30N 49°59' W 002°58'713.5
2017-Oct-12 00:00N 50°02' W 002°49'713.1
2017-Oct-11 23:29N 50°03' W 002°38'7414.1
2017-Oct-11 18:14N 50°22' W 000°47'715.8
2017-Oct-11 17:50N 50°23' W 000°37'515.7
2017-Oct-11 17:30N 50°25' W 000°29'815.3
2017-Oct-11 17:00N 50°27' W 000°18'25910.3
2017-Oct-10 15:47N 54°43' E 000°39'413.0
2017-Oct-10 15:30N 54°46' E 000°34'612.9
2017-Oct-10 15:00N 54°50' E 000°26'6713.5
2017-Oct-10 10:04N 55°34' W 001°02'114.5
2017-Oct-10 10:00N 55°35' W 001°04'714.2
2017-Oct-10 09:30N 55°39' W 001°13'714.4
2017-Oct-10 09:00N 55°44' W 001°23'714.8
2017-Oct-10 08:30N 55°49' W 001°33'714.9
2017-Oct-10 08:00N 55°54' W 001°43'815.1
2017-Oct-10 07:30N 55°59' W 001°53'815.3
2017-Oct-10 07:00N 56°04' W 002°03'815.2
2017-Oct-10 06:30N 56°08' W 002°14'714.6
2017-Oct-10 06:00N 56°09' W 002°27'714.9
2017-Oct-10 05:30N 56°07' W 002°40'612.5
2017-Oct-10 05:00N 56°06' W 002°51'611.5
2017-Oct-10 04:30N 56°03' W 003°00'815.1
2017-Oct-10 04:00N 56°02' W 003°14'713.8
2017-Oct-10 03:30N 56°00' W 003°26'612.3
2017-Oct-10 03:00N 56°02' W 003°36'3 2.3
2017-Oct-10 01:43N 56°02' W 003°41'0 0.0
2017-Oct-08 17:26N 56°02' W 003°41'0 0.3
2017-Oct-08 16:59N 56°02' W 003°41'0 0.4
2017-Oct-08 16:30N 56°02' W 003°41'0 0.4
2017-Oct-08 15:58N 56°02' W 003°41'1 3.3
2017-Oct-08 15:30N 56°02' W 003°38'3 6.8
2017-Oct-08 15:00N 56°02' W 003°32'4 9.1
2017-Oct-08 14:30N 56°00' W 003°25'4 8.8
2017-Oct-08 14:00N 56°02' W 003°17'4 8.5
2017-Oct-08 13:30N 56°03' W 003°10'3 5.5
2017-Oct-08 12:59N 56°06' W 003°07'0 0.1
2017-Oct-08 12:29N 56°06' W 003°07'0 0.2
2017-Oct-08 11:59N 56°06' W 003°07'0 0.1
2017-Oct-08 11:29N 56°06' W 003°07'0 0.2
2017-Oct-08 10:59N 56°06' W 003°07'0 0.1
2017-Oct-08 10:29N 56°06' W 003°07'0 0.1
2017-Oct-08 09:59N 56°06' W 003°07'0 0.0
2017-Oct-08 09:29N 56°06' W 003°07'0 0.0
2017-Oct-08 08:59N 56°06' W 003°07'0 0.0
2017-Oct-08 08:29N 56°06' W 003°07'0 0.0
2017-Oct-08 07:59N 56°06' W 003°07'0 0.0
2017-Oct-08 07:29N 56°06' W 003°07'0 0.0
2017-Oct-08 06:59N 56°06' W 003°07'0 0.0
2017-Oct-08 06:29N 56°06' W 003°07'0 0.0
2017-Oct-08 05:59N 56°06' W 003°07'0 0.0
2017-Oct-08 05:29N 56°06' W 003°07'0 0.0
2017-Oct-08 04:59N 56°06' W 003°07'0 0.0
2017-Oct-08 04:29N 56°06' W 003°07'0 0.0
2017-Oct-08 03:59N 56°06' W 003°07'0 0.0
2017-Oct-08 03:29N 56°06' W 003°07'0 0.1
2017-Oct-08 02:59N 56°06' W 003°07'0 0.1
2017-Oct-08 02:29N 56°06' W 003°07'0 0.0
2017-Oct-08 01:59N 56°06' W 003°07'0 0.0
2017-Oct-08 01:29N 56°06' W 003°07'0 0.1
2017-Oct-08 00:59N 56°06' W 003°07'0 0.0
2017-Oct-08 00:29N 56°06' W 003°07'0 0.0
2017-Oct-07 23:59N 56°06' W 003°07'0 0.1
2017-Oct-07 23:29N 56°06' W 003°07'0 0.1
2017-Oct-07 22:59N 56°06' W 003°07'0 0.2
2017-Oct-07 22:26N 56°06' W 003°07'0 0.0
2017-Oct-07 21:59N 56°06' W 003°07'0 0.0
2017-Oct-07 21:29N 56°06' W 003°07'0 0.0
2017-Oct-07 20:59N 56°06' W 003°07'0 0.0
2017-Oct-07 20:29N 56°06' W 003°07'0 0.0
2017-Oct-07 19:59N 56°06' W 003°07'0 0.0
2017-Oct-07 19:29N 56°06' W 003°07'0 0.0
2017-Oct-07 18:59N 56°06' W 003°07'0 0.0
2017-Oct-07 18:29N 56°06' W 003°07'0 0.0
2017-Oct-07 17:59N 56°06' W 003°07'0 0.0
2017-Oct-07 17:29N 56°06' W 003°07'0 0.1
2017-Oct-07 16:59N 56°06' W 003°07'0 0.0
2017-Oct-07 16:29N 56°06' W 003°07'0 0.1
2017-Oct-07 15:59N 56°06' W 003°07'3 5.5
2017-Oct-07 15:31N 56°03' W 003°09'713.3
2017-Oct-07 15:00N 56°01' W 003°20'510.2
2017-Oct-07 14:30N 56°01' W 003°29'2 3.4
2017-Oct-07 14:00N 56°02' W 003°32'3 5.6
2017-Oct-07 13:30N 56°01' W 003°28'4 7.7
2017-Oct-07 13:00N 56°01' W 003°21'510.5
2017-Oct-07 12:30N 56°02' W 003°12'4 7.9
2017-Oct-07 11:59N 56°06' W 003°07'0 0.1
2017-Oct-07 11:29N 56°05' W 003°07'0 0.1
2017-Oct-07 10:59N 56°06' W 003°07'0 0.1
2017-Oct-07 10:29N 56°06' W 003°07'0 0.0
2017-Oct-07 09:59N 56°06' W 003°07'0 0.0
2017-Oct-07 09:29N 56°06' W 003°07'0 0.0
2017-Oct-07 08:59N 56°06' W 003°07'0 0.0
2017-Oct-07 08:29N 56°06' W 003°07'0 0.0
2017-Oct-07 07:59N 56°06' W 003°07'0 0.0
2017-Oct-07 07:29N 56°06' W 003°07'0 0.0
2017-Oct-07 06:59N 56°06' W 003°07'0 0.0
2017-Oct-07 06:29N 56°06' W 003°07'0 0.0
2017-Oct-07 05:59N 56°06' W 003°07'0 0.0
2017-Oct-07 05:29N 56°06' W 003°07'0 0.0
2017-Oct-07 04:59N 56°06' W 003°07'0 0.0
2017-Oct-07 04:29N 56°06' W 003°07'0 0.0
2017-Oct-07 03:59N 56°06' W 003°07'0 0.0
2017-Oct-07 03:29N 56°06' W 003°07'0 0.0
2017-Oct-07 02:59N 56°06' W 003°07'0 0.0
2017-Oct-07 02:29N 56°06' W 003°07'0 0.0
2017-Oct-07 01:59N 56°06' W 003°07'0 0.1
2017-Oct-07 01:29N 56°06' W 003°07'0 0.3
2017-Oct-07 00:59N 56°05' W 003°07'0 0.1
2017-Oct-07 00:29N 56°05' W 003°07'0 0.0
2017-Oct-06 23:59N 56°05' W 003°07'0 0.0
2017-Oct-06 23:29N 56°05' W 003°07'0 0.1
2017-Oct-06 22:59N 56°05' W 003°07'0 0.2
2017-Oct-06 22:29N 56°05' W 003°07'0 0.2
2017-Oct-06 21:59N 56°06' W 003°07'0 0.1
2017-Oct-06 21:29N 56°06' W 003°07'0 0.1
2017-Oct-06 20:59N 56°06' W 003°07'0 0.0
2017-Oct-06 20:29N 56°06' W 003°07'0 0.0
2017-Oct-06 19:59N 56°06' W 003°07'0 0.0
2017-Oct-06 19:29N 56°06' W 003°07'0 0.0
2017-Oct-06 18:59N 56°06' W 003°07'0 0.0
2017-Oct-06 18:29N 56°06' W 003°07'0 0.1
2017-Oct-06 17:59N 56°06' W 003°07'2 4.9
2017-Oct-06 17:30N 56°06' W 003°03'714.6
2017-Oct-06 17:01N 56°07' W 002°50'713.2
2017-Oct-06 16:30N 56°08' W 002°38'613.0
2017-Oct-06 16:00N 56°11' W 002°27'713.3
2017-Oct-06 15:30N 56°15' W 002°18'713.5
2017-Oct-06 15:00N 56°19' W 002°08'713.8
2017-Oct-06 14:30N 56°24' W 001°59'4312.5
2017-Oct-06 11:03N 57°04' W 001°31'114.1
2017-Oct-06 10:58N 57°05' W 001°31'714.3
2017-Oct-06 10:30N 57°12' W 001°31'914.2
2017-Oct-06 09:51N 57°21' W 001°32'615.1
2017-Oct-06 09:27N 57°27' W 001°33'714.8
2017-Oct-06 09:00N 57°34' W 001°34'713.9
2017-Oct-06 08:30N 57°40' W 001°33'813.9
2017-Oct-06 07:56N 57°48' W 001°32'12011.3
2017-Oct-05 21:18N 59°29' W 003°40'  
Track history (hours):
 
Tides and Currents Weather Stations Pressure Air Temp Water Temp Dewpoint Dewpoint Depression Visibility Wind Speed Wind Dir Waves Ship Positions

Js Ineos Invention

Last reported at 2017-Oct-12 11:11 UTC. Time now 2017-Oct-17 20:26 UTC.
Position N 49°02' W 006°37'.

Length 180 m; draft 7.3 m.

Type: Other ship. MMSI: 249551000.

Date/timePositionNaut miles runAvg speedWind from/ knotsBaromVisibWave heightAir tempDewpointWater temp
2017-Oct-12 11:11N 49°02' W 006°37'314.2
2017-Oct-12 10:58N 49°03' W 006°33'2514.1
2017-Oct-12 09:09N 49°13' W 005°57'813.6
2017-Oct-12 08:36N 49°15' W 005°46'213.4
2017-Oct-12 08:26N 49°16' W 005°42'813.3
2017-Oct-12 07:52N 49°19' W 005°32'2313.9
2017-Oct-12 06:12N 49°27' W 004°58'2814.8
2017-Oct-12 04:19N 49°37' W 004°18'1214.4
2017-Oct-12 03:29N 49°41' W 004°01'816.0
2017-Oct-12 02:59N 49°44' W 003°50'815.0
2017-Oct-12 02:26N 49°47' W 003°38'614.8
2017-Oct-12 02:00N 49°50' W 003°29'815.0
2017-Oct-12 01:30N 49°53' W 003°18'714.6
2017-Oct-12 01:00N 49°56' W 003°08'713.9
2017-Oct-12 00:30N 49°59' W 002°58'713.5
2017-Oct-12 00:00N 50°02' W 002°49'713.1
2017-Oct-11 23:29N 50°03' W 002°38'7414.1
2017-Oct-11 18:14N 50°22' W 000°47'715.8
2017-Oct-11 17:50N 50°23' W 000°37'515.7
2017-Oct-11 17:30N 50°25' W 000°29'815.3
2017-Oct-11 17:00N 50°27' W 000°18'25910.3
2017-Oct-10 15:47N 54°43' E 000°39'413.0
2017-Oct-10 15:30N 54°46' E 000°34'612.9
2017-Oct-10 15:00N 54°50' E 000°26'6713.5
2017-Oct-10 10:04N 55°34' W 001°02'114.5
2017-Oct-10 10:00N 55°35' W 001°04'714.2
2017-Oct-10 09:30N 55°39' W 001°13'714.4
2017-Oct-10 09:00N 55°44' W 001°23'714.8
2017-Oct-10 08:30N 55°49' W 001°33'714.9
2017-Oct-10 08:00N 55°54' W 001°43'815.1
2017-Oct-10 07:30N 55°59' W 001°53'815.3
2017-Oct-10 07:00N 56°04' W 002°03'815.2
2017-Oct-10 06:30N 56°08' W 002°14'714.6
2017-Oct-10 06:00N 56°09' W 002°27'714.9
2017-Oct-10 05:30N 56°07' W 002°40'612.5
2017-Oct-10 05:00N 56°06' W 002°51'611.5
2017-Oct-10 04:30N 56°03' W 003°00'815.1
2017-Oct-10 04:00N 56°02' W 003°14'713.8
2017-Oct-10 03:30N 56°00' W 003°26'612.3
2017-Oct-10 03:00N 56°02' W 003°36'3 2.3
2017-Oct-10 01:43N 56°02' W 003°41'0 0.0
2017-Oct-08 17:26N 56°02' W 003°41'0 0.3
2017-Oct-08 16:59N 56°02' W 003°41'0 0.4
2017-Oct-08 16:30N 56°02' W 003°41'0 0.4
2017-Oct-08 15:58N 56°02' W 003°41'1 3.3
2017-Oct-08 15:30N 56°02' W 003°38'3 6.8
2017-Oct-08 15:00N 56°02' W 003°32'4 9.1
2017-Oct-08 14:30N 56°00' W 003°25'4 8.8
2017-Oct-08 14:00N 56°02' W 003°17'4 8.5
2017-Oct-08 13:30N 56°03' W 003°10'3 5.5
2017-Oct-08 12:59N 56°06' W 003°07'0 0.1
2017-Oct-08 12:29N 56°06' W 003°07'0 0.2
2017-Oct-08 11:59N 56°06' W 003°07'0 0.1
2017-Oct-08 11:29N 56°06' W 003°07'0 0.2
2017-Oct-08 10:59N 56°06' W 003°07'0 0.1
2017-Oct-08 10:29N 56°06' W 003°07'0 0.1
2017-Oct-08 09:59N 56°06' W 003°07'0 0.0
2017-Oct-08 09:29N 56°06' W 003°07'0 0.0
2017-Oct-08 08:59N 56°06' W 003°07'0 0.0
2017-Oct-08 08:29N 56°06' W 003°07'0 0.0
2017-Oct-08 07:59N 56°06' W 003°07'0 0.0
2017-Oct-08 07:29N 56°06' W 003°07'0 0.0
2017-Oct-08 06:59N 56°06' W 003°07'0 0.0
2017-Oct-08 06:29N 56°06' W 003°07'0 0.0
2017-Oct-08 05:59N 56°06' W 003°07'0 0.0
2017-Oct-08 05:29N 56°06' W 003°07'0 0.0
2017-Oct-08 04:59N 56°06' W 003°07'0 0.0
2017-Oct-08 04:29N 56°06' W 003°07'0 0.0
2017-Oct-08 03:59N 56°06' W 003°07'0 0.0
2017-Oct-08 03:29N 56°06' W 003°07'0 0.1
2017-Oct-08 02:59N 56°06' W 003°07'0 0.1
2017-Oct-08 02:29N 56°06' W 003°07'0 0.0
2017-Oct-08 01:59N 56°06' W 003°07'0 0.0
2017-Oct-08 01:29N 56°06' W 003°07'0 0.1
2017-Oct-08 00:59N 56°06' W 003°07'0 0.0
2017-Oct-08 00:29N 56°06' W 003°07'0 0.0
2017-Oct-07 23:59N 56°06' W 003°07'0 0.1
2017-Oct-07 23:29N 56°06' W 003°07'0 0.1
2017-Oct-07 22:59N 56°06' W 003°07'0 0.2
2017-Oct-07 22:26N 56°06' W 003°07'0 0.0
2017-Oct-07 21:59N 56°06' W 003°07'0 0.0
2017-Oct-07 21:29N 56°06' W 003°07'0 0.0
2017-Oct-07 20:59N 56°06' W 003°07'0 0.0
2017-Oct-07 20:29N 56°06' W 003°07'0 0.0
2017-Oct-07 19:59N 56°06' W 003°07'0 0.0
2017-Oct-07 19:29N 56°06' W 003°07'0 0.0
2017-Oct-07 18:59N 56°06' W 003°07'0 0.0
2017-Oct-07 18:29N 56°06' W 003°07'0 0.0
2017-Oct-07 17:59N 56°06' W 003°07'0 0.0
2017-Oct-07 17:29N 56°06' W 003°07'0 0.1
2017-Oct-07 16:59N 56°06' W 003°07'0 0.0
2017-Oct-07 16:29N 56°06' W 003°07'0 0.1
2017-Oct-07 15:59N 56°06' W 003°07'3 5.5
2017-Oct-07 15:31N 56°03' W 003°09'713.3
2017-Oct-07 15:00N 56°01' W 003°20'510.2
2017-Oct-07 14:30N 56°01' W 003°29'2 3.4
2017-Oct-07 14:00N 56°02' W 003°32'3 5.6
2017-Oct-07 13:30N 56°01' W 003°28'4 7.7
2017-Oct-07 13:00N 56°01' W 003°21'510.5
2017-Oct-07 12:30N 56°02' W 003°12'4 7.9
2017-Oct-07 11:59N 56°06' W 003°07'0 0.1
2017-Oct-07 11:29N 56°05' W 003°07'0 0.1
2017-Oct-07 10:59N 56°06' W 003°07'0 0.1
2017-Oct-07 10:29N 56°06' W 003°07'0 0.0
2017-Oct-07 09:59N 56°06' W 003°07'0 0.0
2017-Oct-07 09:29N 56°06' W 003°07'0 0.0
2017-Oct-07 08:59N 56°06' W 003°07'0 0.0
2017-Oct-07 08:29N 56°06' W 003°07'0 0.0
2017-Oct-07 07:59N 56°06' W 003°07'0 0.0
2017-Oct-07 07:29N 56°06' W 003°07'0 0.0
2017-Oct-07 06:59N 56°06' W 003°07'0 0.0
2017-Oct-07 06:29N 56°06' W 003°07'0 0.0
2017-Oct-07 05:59N 56°06' W 003°07'0 0.0
2017-Oct-07 05:29N 56°06' W 003°07'0 0.0
2017-Oct-07 04:59N 56°06' W 003°07'0 0.0
2017-Oct-07 04:29N 56°06' W 003°07'0 0.0
2017-Oct-07 03:59N 56°06' W 003°07'0 0.0
2017-Oct-07 03:29N 56°06' W 003°07'0 0.0
2017-Oct-07 02:59N 56°06' W 003°07'0 0.0
2017-Oct-07 02:29N 56°06' W 003°07'0 0.0
2017-Oct-07 01:59N 56°06' W 003°07'0 0.1
2017-Oct-07 01:29N 56°06' W 003°07'0 0.3
2017-Oct-07 00:59N 56°05' W 003°07'0 0.1
2017-Oct-07 00:29N 56°05' W 003°07'0 0.0
2017-Oct-06 23:59N 56°05' W 003°07'0 0.0
2017-Oct-06 23:29N 56°05' W 003°07'0 0.1
2017-Oct-06 22:59N 56°05' W 003°07'0 0.2
2017-Oct-06 22:29N 56°05' W 003°07'0 0.2
2017-Oct-06 21:59N 56°06' W 003°07'0 0.1
2017-Oct-06 21:29N 56°06' W 003°07'0 0.1
2017-Oct-06 20:59N 56°06' W 003°07'0 0.0
2017-Oct-06 20:29N 56°06' W 003°07'0 0.0
2017-Oct-06 19:59N 56°06' W 003°07'0 0.0
2017-Oct-06 19:29N 56°06' W 003°07'0 0.0
2017-Oct-06 18:59N 56°06' W 003°07'0 0.0
2017-Oct-06 18:29N 56°06' W 003°07'0 0.1
2017-Oct-06 17:59N 56°06' W 003°07'2 4.9
2017-Oct-06 17:30N 56°06' W 003°03'714.6
2017-Oct-06 17:01N 56°07' W 002°50'713.2
2017-Oct-06 16:30N 56°08' W 002°38'613.0
2017-Oct-06 16:00N 56°11' W 002°27'713.3
2017-Oct-06 15:30N 56°15' W 002°18'713.5
2017-Oct-06 15:00N 56°19' W 002°08'713.8
2017-Oct-06 14:30N 56°24' W 001°59'4312.5
2017-Oct-06 11:03N 57°04' W 001°31'114.1
2017-Oct-06 10:58N 57°05' W 001°31'714.3
2017-Oct-06 10:30N 57°12' W 001°31'914.2
2017-Oct-06 09:51N 57°21' W 001°32'615.1
2017-Oct-06 09:27N 57°27' W 001°33'714.8
2017-Oct-06 09:00N 57°34' W 001°34'713.9
2017-Oct-06 08:30N 57°40' W 001°33'813.9
2017-Oct-06 07:56N 57°48' W 001°32'12011.3
2017-Oct-05 21:18N 59°29' W 003°40'  

Dump ship's entire track history